sensor_id;sensor_type;location;lat;lon;timestamp;temperature;humidity
997;DHT22;487;50.126;8.698;2022-07-29T00:02:15;22.30;99.90
997;DHT22;487;50.126;8.698;2022-07-29T00:04:43;22.30;99.90
997;DHT22;487;50.126;8.698;2022-07-29T00:09:39;22.30;99.90
997;DHT22;487;50.126;8.698;2022-07-29T00:12:18;22.30;99.90
997;DHT22;487;50.126;8.698;2022-07-29T00:14:52;22.30;99.90
997;DHT22;487;50.126;8.698;2022-07-29T00:17:22;22.30;99.90
997;DHT22;487;50.126;8.698;2022-07-29T00:19:50;22.30;99.90
997;DHT22;487;50.126;8.698;2022-07-29T00:22:18;22.40;99.90
997;DHT22;487;50.126;8.698;2022-07-29T00:24:47;22.40;99.90
997;DHT22;487;50.126;8.698;2022-07-29T00:27:15;22.40;99.90
997;DHT22;487;50.126;8.698;2022-07-29T00:29:43;22.40;99.90
997;DHT22;487;50.126;8.698;2022-07-29T00:32:11;22.40;99.90
997;DHT22;487;50.126;8.698;2022-07-29T00:34:40;22.30;99.90
997;DHT22;487;50.126;8.698;2022-07-29T00:37:25;22.30;99.90
997;DHT22;487;50.126;8.698;2022-07-29T00:39:52;22.30;99.90
997;DHT22;487;50.126;8.698;2022-07-29T00:42:20;22.30;99.90
997;DHT22;487;50.126;8.698;2022-07-29T00:44:48;22.30;99.90
997;DHT22;487;50.126;8.698;2022-07-29T00:47:16;22.30;99.90
997;DHT22;487;50.126;8.698;2022-07-29T00:49:45;22.40;99.90
997;DHT22;487;50.126;8.698;2022-07-29T00:52:13;22.30;99.90
997;DHT22;487;50.126;8.698;2022-07-29T00:54:42;22.40;99.90
997;DHT22;487;50.126;8.698;2022-07-29T00:57:11;22.40;99.90
997;DHT22;487;50.126;8.698;2022-07-29T00:59:39;22.50;99.90
997;DHT22;487;50.126;8.698;2022-07-29T01:02:07;22.40;99.90
997;DHT22;487;50.126;8.698;2022-07-29T01:04:35;22.50;99.90
997;DHT22;487;50.126;8.698;2022-07-29T01:07:05;22.50;99.90
997;DHT22;487;50.126;8.698;2022-07-29T01:09:34;22.50;99.90
997;DHT22;487;50.126;8.698;2022-07-29T01:12:13;22.60;99.90
997;DHT22;487;50.126;8.698;2022-07-29T01:14:42;22.60;99.90
997;DHT22;487;50.126;8.698;2022-07-29T01:17:12;22.60;99.90
997;DHT22;487;50.126;8.698;2022-07-29T01:19:49;22.60;99.90
997;DHT22;487;50.126;8.698;2022-07-29T01:22:40;22.60;99.90
997;DHT22;487;50.126;8.698;2022-07-29T01:25:19;22.60;99.90
997;DHT22;487;50.126;8.698;2022-07-29T01:28:17;22.60;99.90
997;DHT22;487;50.126;8.698;2022-07-29T01:30:53;22.60;99.90
997;DHT22;487;50.126;8.698;2022-07-29T01:33:24;22.60;99.90
997;DHT22;487;50.126;8.698;2022-07-29T01:36:13;22.50;99.90
997;DHT22;487;50.126;8.698;2022-07-29T01:38:45;22.60;99.90
997;DHT22;487;50.126;8.698;2022-07-29T01:41:17;22.50;99.90
997;DHT22;487;50.126;8.698;2022-07-29T01:43:51;22.50;99.90
997;DHT22;487;50.126;8.698;2022-07-29T01:46:27;22.40;99.90
997;DHT22;487;50.126;8.698;2022-07-29T01:48:59;22.40;99.90
997;DHT22;487;50.126;8.698;2022-07-29T01:51:32;22.30;99.90
997;DHT22;487;50.126;8.698;2022-07-29T01:54:04;22.30;99.90
997;DHT22;487;50.126;8.698;2022-07-29T01:56:35;22.30;99.90
997;DHT22;487;50.126;8.698;2022-07-29T01:59:05;22.30;99.90
997;DHT22;487;50.126;8.698;2022-07-29T02:01:36;22.30;99.90
997;DHT22;487;50.126;8.698;2022-07-29T02:04:06;22.20;99.90
997;DHT22;487;50.126;8.698;2022-07-29T02:06:38;22.20;99.90
997;DHT22;487;50.126;8.698;2022-07-29T02:09:08;22.20;99.90
997;DHT22;487;50.126;8.698;2022-07-29T02:11:37;22.20;99.90
997;DHT22;487;50.126;8.698;2022-07-29T02:14:07;22.10;99.90
997;DHT22;487;50.126;8.698;2022-07-29T02:16:38;22.10;99.90
997;DHT22;487;50.126;8.698;2022-07-29T02:19:08;22.10;99.90
997;DHT22;487;50.126;8.698;2022-07-29T02:21:37;22.10;99.90
997;DHT22;487;50.126;8.698;2022-07-29T02:24:07;22.10;99.90
997;DHT22;487;50.126;8.698;2022-07-29T02:26:37;22.00;99.90
997;DHT22;487;50.126;8.698;2022-07-29T02:29:06;22.00;99.90
997;DHT22;487;50.126;8.698;2022-07-29T02:31:38;22.80;99.90
997;DHT22;487;50.126;8.698;2022-07-29T02:34:08;21.80;99.90
997;DHT22;487;50.126;8.698;2022-07-29T02:36:37;21.70;99.90
997;DHT22;487;50.126;8.698;2022-07-29T02:39:07;21.70;99.90
997;DHT22;487;50.126;8.698;2022-07-29T02:41:40;21.70;99.90
997;DHT22;487;50.126;8.698;2022-07-29T02:44:10;21.70;99.90
997;DHT22;487;50.126;8.698;2022-07-29T02:46:46;21.60;99.90
997;DHT22;487;50.126;8.698;2022-07-29T02:49:21;21.60;99.90
997;DHT22;487;50.126;8.698;2022-07-29T02:51:54;21.60;99.90
997;DHT22;487;50.126;8.698;2022-07-29T02:54:26;21.60;99.90
997;DHT22;487;50.126;8.698;2022-07-29T02:56:58;21.50;99.90
997;DHT22;487;50.126;8.698;2022-07-29T02:59:29;21.50;99.90
997;DHT22;487;50.126;8.698;2022-07-29T03:02:00;21.50;99.90
997;DHT22;487;50.126;8.698;2022-07-29T03:04:30;21.40;99.90
997;DHT22;487;50.126;8.698;2022-07-29T03:07:00;21.40;99.90
997;DHT22;487;50.126;8.698;2022-07-29T03:09:29;21.30;99.90
997;DHT22;487;50.126;8.698;2022-07-29T03:11:58;21.40;99.90
997;DHT22;487;50.126;8.698;2022-07-29T03:14:27;21.30;99.90
997;DHT22;487;50.126;8.698;2022-07-29T03:16:55;21.30;99.90
997;DHT22;487;50.126;8.698;2022-07-29T03:19:26;21.30;99.90
997;DHT22;487;50.126;8.698;2022-07-29T03:21:56;21.30;99.90
997;DHT22;487;50.126;8.698;2022-07-29T03:24:25;21.30;99.90
997;DHT22;487;50.126;8.698;2022-07-29T03:26:55;21.30;99.90
997;DHT22;487;50.126;8.698;2022-07-29T03:29:23;21.30;99.90
997;DHT22;487;50.126;8.698;2022-07-29T03:32:00;21.30;99.90
997;DHT22;487;50.126;8.698;2022-07-29T03:34:31;21.20;99.90
997;DHT22;487;50.126;8.698;2022-07-29T03:36:59;21.10;99.90
997;DHT22;487;50.126;8.698;2022-07-29T03:39:31;21.20;99.90
997;DHT22;487;50.126;8.698;2022-07-29T03:41:59;21.20;99.90
997;DHT22;487;50.126;8.698;2022-07-29T03:44:28;21.20;99.90
997;DHT22;487;50.126;8.698;2022-07-29T03:46:59;21.10;99.90
997;DHT22;487;50.126;8.698;2022-07-29T03:49:31;21.00;99.90
997;DHT22;487;50.126;8.698;2022-07-29T03:52:00;20.90;99.90
997;DHT22;487;50.126;8.698;2022-07-29T03:54:28;20.80;99.90
997;DHT22;487;50.126;8.698;2022-07-29T03:56:58;20.90;99.90
997;DHT22;487;50.126;8.698;2022-07-29T03:59:27;20.80;99.90
997;DHT22;487;50.126;8.698;2022-07-29T04:01:55;20.80;99.90
997;DHT22;487;50.126;8.698;2022-07-29T04:04:25;20.70;99.90
997;DHT22;487;50.126;8.698;2022-07-29T04:06:55;20.70;99.90
997;DHT22;487;50.126;8.698;2022-07-29T04:09:23;20.70;99.90
997;DHT22;487;50.126;8.698;2022-07-29T04:11:51;20.60;99.90
997;DHT22;487;50.126;8.698;2022-07-29T04:14:30;20.40;99.90
997;DHT22;487;50.126;8.698;2022-07-29T04:16:58;20.50;99.90
997;DHT22;487;50.126;8.698;2022-07-29T04:19:26;20.40;99.90
997;DHT22;487;50.126;8.698;2022-07-29T04:21:55;20.40;99.90
997;DHT22;487;50.126;8.698;2022-07-29T04:24:23;20.40;99.90
997;DHT22;487;50.126;8.698;2022-07-29T04:26:51;20.40;99.90
997;DHT22;487;50.126;8.698;2022-07-29T04:29:19;20.40;99.90
997;DHT22;487;50.126;8.698;2022-07-29T04:31:47;20.00;99.90
997;DHT22;487;50.126;8.698;2022-07-29T04:34:15;20.40;99.90
997;DHT22;487;50.126;8.698;2022-07-29T04:36:44;20.40;99.90
997;DHT22;487;50.126;8.698;2022-07-29T04:39:13;20.40;99.90
997;DHT22;487;50.126;8.698;2022-07-29T04:41:48;20.40;99.90
997;DHT22;487;50.126;8.698;2022-07-29T04:44:18;20.40;99.90
997;DHT22;487;50.126;8.698;2022-07-29T04:46:46;20.40;99.90
997;DHT22;487;50.126;8.698;2022-07-29T04:49:14;20.40;99.90
997;DHT22;487;50.126;8.698;2022-07-29T04:51:42;20.40;99.90
997;DHT22;487;50.126;8.698;2022-07-29T04:54:10;20.50;99.90
997;DHT22;487;50.126;8.698;2022-07-29T04:56:39;20.50;99.90
997;DHT22;487;50.126;8.698;2022-07-29T05:01:38;20.50;99.90
997;DHT22;487;50.126;8.698;2022-07-29T05:04:06;20.60;99.90
997;DHT22;487;50.126;8.698;2022-07-29T05:06:34;20.60;99.90
997;DHT22;487;50.126;8.698;2022-07-29T05:09:02;20.70;99.90
997;DHT22;487;50.126;8.698;2022-07-29T05:11:30;20.70;99.90
997;DHT22;487;50.126;8.698;2022-07-29T05:13:59;20.70;99.90
997;DHT22;487;50.126;8.698;2022-07-29T05:34:26;21.10;99.90
997;DHT22;487;50.126;8.698;2022-07-29T05:36:55;21.10;99.90
997;DHT22;487;50.126;8.698;2022-07-29T05:39:23;21.20;99.90
997;DHT22;487;50.126;8.698;2022-07-29T05:42:11;21.20;99.90
997;DHT22;487;50.126;8.698;2022-07-29T05:44:40;21.30;99.90
997;DHT22;487;50.126;8.698;2022-07-29T05:47:08;21.30;99.90
997;DHT22;487;50.126;8.698;2022-07-29T05:49:36;21.20;99.90
997;DHT22;487;50.126;8.698;2022-07-29T05:52:04;21.20;99.90
997;DHT22;487;50.126;8.698;2022-07-29T05:54:32;21.20;99.90
997;DHT22;487;50.126;8.698;2022-07-29T05:57:00;21.20;99.90
997;DHT22;487;50.126;8.698;2022-07-29T05:59:28;21.20;99.90
997;DHT22;487;50.126;8.698;2022-07-29T06:01:58;21.20;99.90
997;DHT22;487;50.126;8.698;2022-07-29T06:04:26;21.20;99.90
997;DHT22;487;50.126;8.698;2022-07-29T06:06:54;21.30;99.90
997;DHT22;487;50.126;8.698;2022-07-29T06:09:21;21.30;99.90
997;DHT22;487;50.126;8.698;2022-07-29T06:11:50;21.30;99.90
997;DHT22;487;50.126;8.698;2022-07-29T06:14:18;21.30;99.90
997;DHT22;487;50.126;8.698;2022-07-29T06:16:46;21.40;99.90
997;DHT22;487;50.126;8.698;2022-07-29T06:19:16;21.40;99.90
997;DHT22;487;50.126;8.698;2022-07-29T06:21:44;21.40;99.90
997;DHT22;487;50.126;8.698;2022-07-29T06:24:13;21.50;99.90
997;DHT22;487;50.126;8.698;2022-07-29T06:26:42;21.50;99.90
997;DHT22;487;50.126;8.698;2022-07-29T06:29:10;21.50;99.90
997;DHT22;487;50.126;8.698;2022-07-29T06:31:38;21.60;99.90
997;DHT22;487;50.126;8.698;2022-07-29T06:34:06;21.60;99.90
997;DHT22;487;50.126;8.698;2022-07-29T06:36:36;21.60;99.90
997;DHT22;487;50.126;8.698;2022-07-29T06:39:07;21.60;99.90
997;DHT22;487;50.126;8.698;2022-07-29T06:41:37;21.70;99.90
997;DHT22;487;50.126;8.698;2022-07-29T06:44:05;21.70;99.90
997;DHT22;487;50.126;8.698;2022-07-29T06:46:33;21.90;99.90
997;DHT22;487;50.126;8.698;2022-07-29T06:49:01;21.90;99.90
997;DHT22;487;50.126;8.698;2022-07-29T06:51:29;22.00;99.90
997;DHT22;487;50.126;8.698;2022-07-29T06:53:59;22.00;99.90
997;DHT22;487;50.126;8.698;2022-07-29T06:56:29;22.00;99.90
997;DHT22;487;50.126;8.698;2022-07-29T06:59:04;22.00;99.90
997;DHT22;487;50.126;8.698;2022-07-29T07:01:32;22.00;99.90
997;DHT22;487;50.126;8.698;2022-07-29T07:04:00;22.00;99.90
997;DHT22;487;50.126;8.698;2022-07-29T07:06:28;22.20;99.90
997;DHT22;487;50.126;8.698;2022-07-29T07:08:56;22.20;99.90
997;DHT22;487;50.126;8.698;2022-07-29T07:11:26;22.20;99.90
997;DHT22;487;50.126;8.698;2022-07-29T07:13:53;22.20;99.90
997;DHT22;487;50.126;8.698;2022-07-29T07:16:28;22.20;99.90
997;DHT22;487;50.126;8.698;2022-07-29T07:18:56;22.20;99.90
997;DHT22;487;50.126;8.698;2022-07-29T07:21:24;22.20;99.90
997;DHT22;487;50.126;8.698;2022-07-29T07:23:56;22.40;99.90
997;DHT22;487;50.126;8.698;2022-07-29T07:26:23;22.40;99.90
997;DHT22;487;50.126;8.698;2022-07-29T07:28:53;22.40;99.90
997;DHT22;487;50.126;8.698;2022-07-29T07:31:20;22.50;99.90
997;DHT22;487;50.126;8.698;2022-07-29T07:33:49;22.60;99.90
997;DHT22;487;50.126;8.698;2022-07-29T07:36:18;22.70;99.90
997;DHT22;487;50.126;8.698;2022-07-29T07:38:46;22.80;99.90
997;DHT22;487;50.126;8.698;2022-07-29T07:41:13;22.80;99.90
997;DHT22;487;50.126;8.698;2022-07-29T07:43:41;22.90;99.90
997;DHT22;487;50.126;8.698;2022-07-29T07:46:11;23.00;99.90
997;DHT22;487;50.126;8.698;2022-07-29T07:48:39;23.00;99.90
997;DHT22;487;50.126;8.698;2022-07-29T07:51:07;23.10;99.90
997;DHT22;487;50.126;8.698;2022-07-29T07:53:35;23.20;99.90
997;DHT22;487;50.126;8.698;2022-07-29T07:56:03;23.30;99.90
997;DHT22;487;50.126;8.698;2022-07-29T07:58:37;23.40;99.90
997;DHT22;487;50.126;8.698;2022-07-29T08:01:05;23.40;99.90
997;DHT22;487;50.126;8.698;2022-07-29T08:03:35;23.50;99.90
997;DHT22;487;50.126;8.698;2022-07-29T08:06:03;23.60;99.90
997;DHT22;487;50.126;8.698;2022-07-29T08:08:31;23.60;99.90
997;DHT22;487;50.126;8.698;2022-07-29T08:10:59;23.60;99.90
997;DHT22;487;50.126;8.698;2022-07-29T08:13:35;23.60;99.90
997;DHT22;487;50.126;8.698;2022-07-29T08:16:03;23.60;99.90
997;DHT22;487;50.126;8.698;2022-07-29T08:18:41;23.70;99.90
997;DHT22;487;50.126;8.698;2022-07-29T08:21:09;23.70;99.90
997;DHT22;487;50.126;8.698;2022-07-29T08:26:24;23.90;99.90
997;DHT22;487;50.126;8.698;2022-07-29T08:28:52;23.90;99.90
997;DHT22;487;50.126;8.698;2022-07-29T08:31:20;24.00;99.90
997;DHT22;487;50.126;8.698;2022-07-29T08:33:50;24.00;99.90
997;DHT22;487;50.126;8.698;2022-07-29T08:36:17;24.10;99.90
997;DHT22;487;50.126;8.698;2022-07-29T08:38:47;24.20;99.90
997;DHT22;487;50.126;8.698;2022-07-29T08:41:16;24.20;99.90
997;DHT22;487;50.126;8.698;2022-07-29T08:43:45;24.20;99.90
997;DHT22;487;50.126;8.698;2022-07-29T08:46:14;24.30;99.90
997;DHT22;487;50.126;8.698;2022-07-29T08:48:44;24.30;99.90
997;DHT22;487;50.126;8.698;2022-07-29T08:51:15;27.10;99.90
997;DHT22;487;50.126;8.698;2022-07-29T08:53:44;24.30;99.90
997;DHT22;487;50.126;8.698;2022-07-29T08:56:14;24.40;99.90
997;DHT22;487;50.126;8.698;2022-07-29T08:58:44;24.40;99.90
997;DHT22;487;50.126;8.698;2022-07-29T09:01:22;24.70;99.90
997;DHT22;487;50.126;8.698;2022-07-29T09:04:04;24.70;99.90
997;DHT22;487;50.126;8.698;2022-07-29T09:06:37;24.90;99.90
997;DHT22;487;50.126;8.698;2022-07-29T09:09:07;24.90;99.90
997;DHT22;487;50.126;8.698;2022-07-29T09:11:36;25.00;99.90
997;DHT22;487;50.126;8.698;2022-07-29T09:14:04;25.10;99.90
997;DHT22;487;50.126;8.698;2022-07-29T09:16:51;25.20;99.90
997;DHT22;487;50.126;8.698;2022-07-29T09:19:22;25.30;99.90
997;DHT22;487;50.126;8.698;2022-07-29T09:24:36;25.30;99.90
997;DHT22;487;50.126;8.698;2022-07-29T09:27:18;25.40;99.90
997;DHT22;487;50.126;8.698;2022-07-29T09:29:47;25.40;99.90
997;DHT22;487;50.126;8.698;2022-07-29T09:32:15;25.50;99.90
997;DHT22;487;50.126;8.698;2022-07-29T09:34:43;25.50;99.90
997;DHT22;487;50.126;8.698;2022-07-29T09:37:26;25.60;99.90
997;DHT22;487;50.126;8.698;2022-07-29T09:39:54;25.70;99.90
997;DHT22;487;50.126;8.698;2022-07-29T09:42:28;25.70;99.90
997;DHT22;487;50.126;8.698;2022-07-29T09:44:56;25.80;99.90
997;DHT22;487;50.126;8.698;2022-07-29T09:47:41;25.80;99.90
997;DHT22;487;50.126;8.698;2022-07-29T09:50:09;25.80;99.90
997;DHT22;487;50.126;8.698;2022-07-29T09:52:45;26.00;99.90
997;DHT22;487;50.126;8.698;2022-07-29T09:55:14;26.10;99.90
997;DHT22;487;50.126;8.698;2022-07-29T09:57:45;26.10;99.90
997;DHT22;487;50.126;8.698;2022-07-29T10:00:14;26.20;99.90
997;DHT22;487;50.126;8.698;2022-07-29T10:02:43;26.20;99.90
997;DHT22;487;50.126;8.698;2022-07-29T10:05:20;26.20;99.90
997;DHT22;487;50.126;8.698;2022-07-29T10:07:53;26.30;99.90
997;DHT22;487;50.126;8.698;2022-07-29T10:10:26;26.20;99.90
997;DHT22;487;50.126;8.698;2022-07-29T10:12:56;26.40;99.90
997;DHT22;487;50.126;8.698;2022-07-29T10:15:34;26.50;99.90
997;DHT22;487;50.126;8.698;2022-07-29T10:18:04;26.50;99.90
997;DHT22;487;50.126;8.698;2022-07-29T10:20:32;26.50;99.90
997;DHT22;487;50.126;8.698;2022-07-29T10:23:01;26.60;99.90
997;DHT22;487;50.126;8.698;2022-07-29T10:25:30;26.70;99.90
997;DHT22;487;50.126;8.698;2022-07-29T10:27:58;26.70;99.90
997;DHT22;487;50.126;8.698;2022-07-29T10:30:26;26.70;99.90
997;DHT22;487;50.126;8.698;2022-07-29T10:33:15;26.90;99.90
997;DHT22;487;50.126;8.698;2022-07-29T10:35:57;27.20;99.90
997;DHT22;487;50.126;8.698;2022-07-29T10:38:42;27.30;99.90
997;DHT22;487;50.126;8.698;2022-07-29T10:44:14;27.30;99.90
997;DHT22;487;50.126;8.698;2022-07-29T10:46:45;27.50;99.90
997;DHT22;487;50.126;8.698;2022-07-29T10:49:17;27.60;99.90
997;DHT22;487;50.126;8.698;2022-07-29T10:51:58;27.70;99.90
997;DHT22;487;50.126;8.698;2022-07-29T10:54:47;27.80;99.90
997;DHT22;487;50.126;8.698;2022-07-29T10:57:20;27.80;99.90
997;DHT22;487;50.126;8.698;2022-07-29T11:00:29;27.70;99.90
997;DHT22;487;50.126;8.698;2022-07-29T11:02:59;27.70;99.90
997;DHT22;487;50.126;8.698;2022-07-29T11:05:54;27.70;99.90
997;DHT22;487;50.126;8.698;2022-07-29T11:08:26;27.70;99.90
997;DHT22;487;50.126;8.698;2022-07-29T11:14:04;27.70;99.90
997;DHT22;487;50.126;8.698;2022-07-29T11:17:03;27.60;99.90
997;DHT22;487;50.126;8.698;2022-07-29T11:19:33;27.60;99.90
997;DHT22;487;50.126;8.698;2022-07-29T11:22:08;27.70;99.90
997;DHT22;487;50.126;8.698;2022-07-29T11:24:37;27.80;99.90
997;DHT22;487;50.126;8.698;2022-07-29T11:27:17;27.90;99.90
997;DHT22;487;50.126;8.698;2022-07-29T11:29:53;28.00;99.90
997;DHT22;487;50.126;8.698;2022-07-29T11:32:23;28.00;99.90
997;DHT22;487;50.126;8.698;2022-07-29T11:35:12;28.00;99.90
997;DHT22;487;50.126;8.698;2022-07-29T11:37:44;28.00;99.90
997;DHT22;487;50.126;8.698;2022-07-29T11:40:23;28.00;99.90
997;DHT22;487;50.126;8.698;2022-07-29T11:42:51;28.00;99.90
997;DHT22;487;50.126;8.698;2022-07-29T11:45:26;28.20;99.90
997;DHT22;487;50.126;8.698;2022-07-29T11:48:15;28.30;99.90
997;DHT22;487;50.126;8.698;2022-07-29T11:50:58;28.30;99.90
997;DHT22;487;50.126;8.698;2022-07-29T11:53:28;28.30;99.90
997;DHT22;487;50.126;8.698;2022-07-29T11:55:59;28.40;99.90
997;DHT22;487;50.126;8.698;2022-07-29T11:58:29;28.50;99.90
997;DHT22;487;50.126;8.698;2022-07-29T12:00:59;28.50;99.90
997;DHT22;487;50.126;8.698;2022-07-29T12:03:31;28.70;99.90
997;DHT22;487;50.126;8.698;2022-07-29T12:06:02;26.60;99.90
997;DHT22;487;50.126;8.698;2022-07-29T12:08:40;28.90;99.90
997;DHT22;487;50.126;8.698;2022-07-29T12:11:15;28.90;99.90
997;DHT22;487;50.126;8.698;2022-07-29T12:13:46;29.10;99.90
997;DHT22;487;50.126;8.698;2022-07-29T12:16:16;29.10;99.90
997;DHT22;487;50.126;8.698;2022-07-29T12:18:57;29.10;99.90
997;DHT22;487;50.126;8.698;2022-07-29T12:21:25;29.20;99.90
997;DHT22;487;50.126;8.698;2022-07-29T12:23:56;29.20;99.90
997;DHT22;487;50.126;8.698;2022-07-29T12:26:35;29.10;99.90
997;DHT22;487;50.126;8.698;2022-07-29T12:31:42;28.90;99.90
997;DHT22;487;50.126;8.698;2022-07-29T12:34:11;28.80;99.90
997;DHT22;487;50.126;8.698;2022-07-29T12:39:09;28.90;99.90
997;DHT22;487;50.126;8.698;2022-07-29T12:41:38;28.90;99.90
997;DHT22;487;50.126;8.698;2022-07-29T12:44:06;29.00;99.90
997;DHT22;487;50.126;8.698;2022-07-29T12:46:35;27.10;99.90
997;DHT22;487;50.126;8.698;2022-07-29T12:49:06;29.30;99.90
997;DHT22;487;50.126;8.698;2022-07-29T12:51:37;29.20;99.90
997;DHT22;487;50.126;8.698;2022-07-29T12:54:08;29.30;99.90
997;DHT22;487;50.126;8.698;2022-07-29T12:56:37;29.40;99.90
997;DHT22;487;50.126;8.698;2022-07-29T12:59:14;29.40;99.90
997;DHT22;487;50.126;8.698;2022-07-29T13:01:43;29.60;99.90
997;DHT22;487;50.126;8.698;2022-07-29T13:04:24;29.60;99.90
997;DHT22;487;50.126;8.698;2022-07-29T13:06:58;29.60;99.90
997;DHT22;487;50.126;8.698;2022-07-29T13:09:37;29.60;99.90
997;DHT22;487;50.126;8.698;2022-07-29T13:12:07;29.70;99.90
997;DHT22;487;50.126;8.698;2022-07-29T13:14:38;29.70;99.90
997;DHT22;487;50.126;8.698;2022-07-29T13:17:07;29.80;99.90
997;DHT22;487;50.126;8.698;2022-07-29T13:19:39;29.80;99.90
997;DHT22;487;50.126;8.698;2022-07-29T13:22:07;29.70;99.90
997;DHT22;487;50.126;8.698;2022-07-29T13:24:46;29.70;99.90
997;DHT22;487;50.126;8.698;2022-07-29T13:27:14;29.30;99.90
997;DHT22;487;50.126;8.698;2022-07-29T13:29:42;29.30;99.90
997;DHT22;487;50.126;8.698;2022-07-29T13:32:11;29.20;99.90
997;DHT22;487;50.126;8.698;2022-07-29T13:34:40;29.20;99.90
997;DHT22;487;50.126;8.698;2022-07-29T13:37:08;29.10;99.90
997;DHT22;487;50.126;8.698;2022-07-29T13:39:36;29.00;99.90
997;DHT22;487;50.126;8.698;2022-07-29T13:44:37;28.90;99.90
997;DHT22;487;50.126;8.698;2022-07-29T13:47:05;28.80;99.90
997;DHT22;487;50.126;8.698;2022-07-29T13:49:33;28.90;99.90
997;DHT22;487;50.126;8.698;2022-07-29T13:52:03;28.90;99.90
997;DHT22;487;50.126;8.698;2022-07-29T13:54:34;28.80;99.90
997;DHT22;487;50.126;8.698;2022-07-29T13:57:08;28.80;99.90
997;DHT22;487;50.126;8.698;2022-07-29T13:59:37;28.80;99.90
997;DHT22;487;50.126;8.698;2022-07-29T14:02:06;28.80;99.90
997;DHT22;487;50.126;8.698;2022-07-29T14:07:07;28.90;99.90
997;DHT22;487;50.126;8.698;2022-07-29T14:09:35;28.90;99.90
997;DHT22;487;50.126;8.698;2022-07-29T14:12:08;28.90;99.90
997;DHT22;487;50.126;8.698;2022-07-29T14:19:34;28.70;99.90
997;DHT22;487;50.126;8.698;2022-07-29T14:22:06;28.70;99.90
997;DHT22;487;50.126;8.698;2022-07-29T14:24:36;28.60;99.90
997;DHT22;487;50.126;8.698;2022-07-29T14:29:33;28.50;99.90
997;DHT22;487;50.126;8.698;2022-07-29T14:32:04;28.40;99.90
997;DHT22;487;50.126;8.698;2022-07-29T14:34:33;28.40;99.90
997;DHT22;487;50.126;8.698;2022-07-29T14:37:01;28.30;99.90
997;DHT22;487;50.126;8.698;2022-07-29T14:39:30;28.30;99.90
997;DHT22;487;50.126;8.698;2022-07-29T14:41:58;28.10;99.90
997;DHT22;487;50.126;8.698;2022-07-29T14:44:27;27.90;99.90
997;DHT22;487;50.126;8.698;2022-07-29T14:46:57;27.70;99.90
997;DHT22;487;50.126;8.698;2022-07-29T14:49:33;27.60;99.90
997;DHT22;487;50.126;8.698;2022-07-29T14:52:01;27.50;99.90
997;DHT22;487;50.126;8.698;2022-07-29T14:54:31;27.50;99.90
997;DHT22;487;50.126;8.698;2022-07-29T14:56:58;27.40;99.90
997;DHT22;487;50.126;8.698;2022-07-29T14:59:27;27.40;99.90
997;DHT22;487;50.126;8.698;2022-07-29T15:01:54;27.30;99.90
997;DHT22;487;50.126;8.698;2022-07-29T15:04:23;27.20;99.90
997;DHT22;487;50.126;8.698;2022-07-29T15:06:51;27.20;99.90
997;DHT22;487;50.126;8.698;2022-07-29T15:09:19;27.10;99.90
997;DHT22;487;50.126;8.698;2022-07-29T15:11:48;27.10;99.90
997;DHT22;487;50.126;8.698;2022-07-29T15:14:16;27.10;99.90
997;DHT22;487;50.126;8.698;2022-07-29T15:16:44;27.10;99.90
997;DHT22;487;50.126;8.698;2022-07-29T15:21:42;27.10;99.90
997;DHT22;487;50.126;8.698;2022-07-29T15:24:14;27.20;99.90
997;DHT22;487;50.126;8.698;2022-07-29T15:26:43;27.20;99.90
997;DHT22;487;50.126;8.698;2022-07-29T15:29:13;27.20;99.90
997;DHT22;487;50.126;8.698;2022-07-29T15:31:42;27.20;99.90
997;DHT22;487;50.126;8.698;2022-07-29T15:34:10;27.30;99.90
997;DHT22;487;50.126;8.698;2022-07-29T15:36:38;27.30;99.90
997;DHT22;487;50.126;8.698;2022-07-29T15:41:50;27.40;99.90
997;DHT22;487;50.126;8.698;2022-07-29T15:44:20;27.30;99.90
997;DHT22;487;50.126;8.698;2022-07-29T15:46:49;27.40;99.90
997;DHT22;487;50.126;8.698;2022-07-29T15:49:33;27.40;99.90
997;DHT22;487;50.126;8.698;2022-07-29T15:52:15;27.40;99.90
997;DHT22;487;50.126;8.698;2022-07-29T15:54:43;27.50;99.90
997;DHT22;487;50.126;8.698;2022-07-29T15:57:11;27.50;99.90
997;DHT22;487;50.126;8.698;2022-07-29T15:59:40;27.50;99.90
997;DHT22;487;50.126;8.698;2022-07-29T16:02:08;27.60;99.90
997;DHT22;487;50.126;8.698;2022-07-29T16:04:36;27.60;99.90
997;DHT22;487;50.126;8.698;2022-07-29T16:07:04;27.60;99.90
997;DHT22;487;50.126;8.698;2022-07-29T16:09:32;27.50;99.90
997;DHT22;487;50.126;8.698;2022-07-29T16:12:00;27.50;99.90
997;DHT22;487;50.126;8.698;2022-07-29T16:14:42;27.50;99.90
997;DHT22;487;50.126;8.698;2022-07-29T16:17:10;27.40;99.90
997;DHT22;487;50.126;8.698;2022-07-29T16:19:40;27.40;99.90
997;DHT22;487;50.126;8.698;2022-07-29T16:22:08;27.30;99.90
997;DHT22;487;50.126;8.698;2022-07-29T16:27:04;27.20;99.90
997;DHT22;487;50.126;8.698;2022-07-29T16:29:32;27.00;99.90
997;DHT22;487;50.126;8.698;2022-07-29T16:32:04;26.70;99.90
997;DHT22;487;50.126;8.698;2022-07-29T16:34:32;26.60;99.90
997;DHT22;487;50.126;8.698;2022-07-29T16:39:29;26.60;99.90
997;DHT22;487;50.126;8.698;2022-07-29T16:44:27;26.60;99.90
997;DHT22;487;50.126;8.698;2022-07-29T16:46:57;26.60;99.90
997;DHT22;487;50.126;8.698;2022-07-29T16:49:27;26.40;99.90
997;DHT22;487;50.126;8.698;2022-07-29T16:51:55;26.40;99.90
997;DHT22;487;50.126;8.698;2022-07-29T16:54:24;26.30;99.90
997;DHT22;487;50.126;8.698;2022-07-29T16:56:52;26.30;99.90
997;DHT22;487;50.126;8.698;2022-07-29T16:59:21;26.30;99.90
997;DHT22;487;50.126;8.698;2022-07-29T17:01:49;26.30;99.90
997;DHT22;487;50.126;8.698;2022-07-29T17:04:17;26.30;99.90
997;DHT22;487;50.126;8.698;2022-07-29T17:06:49;26.30;99.90
997;DHT22;487;50.126;8.698;2022-07-29T17:09:18;26.30;99.90
997;DHT22;487;50.126;8.698;2022-07-29T17:11:47;26.30;99.90
997;DHT22;487;50.126;8.698;2022-07-29T17:14:21;26.30;99.90
997;DHT22;487;50.126;8.698;2022-07-29T17:16:50;26.30;99.90
997;DHT22;487;50.126;8.698;2022-07-29T17:19:30;26.30;99.90
997;DHT22;487;50.126;8.698;2022-07-29T17:21:59;26.10;99.90
997;DHT22;487;50.126;8.698;2022-07-29T17:24:44;26.00;99.90
997;DHT22;487;50.126;8.698;2022-07-29T17:27:13;25.90;99.90
997;DHT22;487;50.126;8.698;2022-07-29T17:29:41;25.70;99.90
997;DHT22;487;50.126;8.698;2022-07-29T17:32:10;25.60;99.90
997;DHT22;487;50.126;8.698;2022-07-29T17:34:40;25.50;99.90
997;DHT22;487;50.126;8.698;2022-07-29T17:37:10;25.50;99.90
997;DHT22;487;50.126;8.698;2022-07-29T17:39:39;25.30;99.90
997;DHT22;487;50.126;8.698;2022-07-29T17:42:09;25.30;99.90
997;DHT22;487;50.126;8.698;2022-07-29T17:44:38;25.20;99.90
997;DHT22;487;50.126;8.698;2022-07-29T17:47:07;25.10;99.90
997;DHT22;487;50.126;8.698;2022-07-29T17:49:41;25.10;99.90
997;DHT22;487;50.126;8.698;2022-07-29T17:52:11;25.00;99.90
997;DHT22;487;50.126;8.698;2022-07-29T17:54:39;24.90;99.90
997;DHT22;487;50.126;8.698;2022-07-29T17:57:07;24.90;99.90
997;DHT22;487;50.126;8.698;2022-07-29T17:59:34;24.90;99.90
997;DHT22;487;50.126;8.698;2022-07-29T18:02:02;24.90;99.90
997;DHT22;487;50.126;8.698;2022-07-29T18:04:30;24.90;99.90